createdAt,value
2018-04-13T00:00:01.614Z,71.36
2018-04-13T00:00:05.724Z,71.45
2018-04-13T00:00:09.820Z,71.45
2018-04-13T00:00:14.033Z,71.45
2018-04-13T00:00:18.349Z,71.16
2018-04-13T00:00:22.553Z,71.36
2018-04-13T00:00:26.864Z,71.26
2018-04-13T00:00:31.184Z,71.45
2018-04-13T00:00:35.404Z,71.45
2018-04-13T00:00:39.503Z,71.36
2018-04-13T00:00:43.819Z,71.36
2018-04-13T00:00:47.923Z,71.36
2018-04-13T00:00:52.238Z,70.97
2018-04-13T00:00:56.442Z,71.36
2018-04-13T00:01:00.758Z,71.26
2018-04-13T00:01:04.959Z,71.26
2018-04-13T00:01:09.176Z,71.26
2018-04-13T00:01:13.424Z,71.26
2018-04-13T00:01:17.522Z,71.26
2018-04-13T00:01:21.843Z,71.64
2018-04-13T00:01:26.050Z,71.26
2018-04-13T00:01:30.307Z,71.36
2018-04-13T00:01:34.621Z,71.16
2018-04-13T00:01:38.506Z,71.26
2018-04-13T00:01:42.819Z,71.73
2018-04-13T00:01:47.022Z,71.36
2018-04-13T00:01:51.124Z,71.16
2018-04-13T00:01:55.332Z,71.16
2018-04-13T00:01:59.433Z,71.45
2018-04-13T00:02:03.530Z,71.16
2018-04-13T00:02:07.634Z,71.26
2018-04-13T00:02:11.949Z,71.26
2018-04-13T00:02:16.271Z,71.26
2018-04-13T00:02:20.590Z,71.26
2018-04-13T00:02:24.690Z,71.07
2018-04-13T00:02:29.006Z,71.36
2018-04-13T00:02:32.997Z,71.26
2018-04-13T00:02:37.311Z,71.83
2018-04-13T00:02:41.414Z,71.55
2018-04-13T00:02:45.419Z,71.73
2018-04-13T00:02:49.626Z,71.45
2018-04-13T00:02:53.936Z,71.45
2018-04-13T00:02:58.143Z,71.55
2018-04-13T00:03:02.345Z,71.64
2018-04-13T00:03:06.340Z,71.55
2018-04-13T00:03:10.545Z,71.45
2018-04-13T00:03:14.863Z,71.45
2018-04-13T00:03:19.170Z,71.55
2018-04-13T00:03:23.268Z,71.45
2018-04-13T00:03:27.580Z,71.64
2018-04-13T00:03:31.893Z,71.73
2018-04-13T00:03:36.097Z,71.83
2018-04-13T00:03:40.421Z,71.93
2018-04-13T00:03:44.629Z,71.83
2018-04-13T00:03:48.950Z,72.31
2018-04-13T00:03:53.162Z,72.12
2018-04-13T00:03:57.473Z,71.93
2018-04-13T00:04:01.789Z,72.12
2018-04-13T00:04:05.984Z,72.31
2018-04-13T00:04:10.091Z,72.22
2018-04-13T00:04:14.187Z,72.02
2018-04-13T00:04:18.508Z,72.12
2018-04-13T00:04:22.713Z,71.93
2018-04-13T00:04:26.605Z,72.12
2018-04-13T00:04:30.812Z,71.93
2018-04-13T00:04:35.019Z,71.93
2018-04-13T00:04:39.235Z,72.12
2018-04-13T00:04:43.550Z,71.83
2018-04-13T00:04:47.757Z,71.93
2018-04-13T00:04:52.099Z,72.22
2018-04-13T00:04:56.311Z,72.31
2018-04-13T00:05:00.517Z,72.41
2018-04-13T00:05:04.773Z,72.41
2018-04-13T00:05:08.981Z,72.22
2018-04-13T00:05:12.869Z,72.6
2018-04-13T00:05:17.184Z,72.69
2018-04-13T00:05:21.399Z,72.79
2018-04-13T00:05:25.743Z,72.41
2018-04-13T00:05:29.842Z,72.41
2018-04-13T00:05:34.051Z,72.5
2018-04-13T00:05:38.373Z,72.41
2018-04-13T00:05:42.594Z,72.41
2018-04-13T00:05:46.922Z,72.88
2018-04-13T00:05:51.021Z,72.5
2018-04-13T00:05:55.227Z,72.31
2018-04-13T00:05:59.433Z,72.6
2018-04-13T00:06:03.639Z,72.5
2018-04-13T00:06:07.739Z,72.69
2018-04-13T00:06:11.957Z,72.69
2018-04-13T00:06:16.277Z,72.69
2018-04-13T00:06:20.482Z,72.69
2018-04-13T00:06:24.687Z,72.69
2018-04-13T00:06:29.016Z,72.79
2018-04-13T00:06:33.356Z,72.79
2018-04-13T00:06:37.676Z,72.69
2018-04-13T00:06:41.775Z,72.79
2018-04-13T00:06:46.092Z,72.69
2018-04-13T00:06:50.298Z,72.79
2018-04-13T00:06:54.507Z,72.69
2018-04-13T00:06:58.742Z,72.69
2018-04-13T00:07:02.945Z,72.79
2018-04-13T00:07:07.159Z,72.69
2018-04-13T00:07:11.406Z,72.69
2018-04-13T00:07:15.612Z,72.79
2018-04-13T00:07:19.935Z,72.69
2018-04-13T00:07:24.262Z,72.69
2018-04-13T00:07:28.468Z,72.79
2018-04-13T00:07:32.678Z,72.69
2018-04-13T00:07:36.876Z,72.69
2018-04-13T00:07:40.980Z,72.69
2018-04-13T00:07:45.082Z,72.69
2018-04-13T00:07:49.291Z,72.98
2018-04-13T00:07:53.625Z,72.69
2018-04-13T00:07:57.944Z,72.69
2018-04-13T00:08:02.153Z,72.69
2018-04-13T00:08:06.484Z,72.69
2018-04-13T00:08:10.715Z,72.69
2018-04-13T00:08:14.810Z,72.6
2018-04-13T00:08:19.130Z,72.69
2018-04-13T00:08:23.444Z,72.69
2018-04-13T00:08:27.565Z,72.69
2018-04-13T00:08:31.664Z,72.69
2018-04-13T00:08:35.878Z,72.69
2018-04-13T00:08:40.190Z,72.69
2018-04-13T00:08:44.503Z,72.69
2018-04-13T00:08:48.830Z,72.6
2018-04-13T00:08:53.040Z,72.69
2018-04-13T00:08:57.246Z,72.69
2018-04-13T00:09:01.452Z,72.69
2018-04-13T00:09:05.765Z,72.6
2018-04-13T00:09:09.973Z,72.79
2018-04-13T00:09:14.194Z,72.69
2018-04-13T00:09:18.519Z,72.69
2018-04-13T00:09:22.738Z,72.69
2018-04-13T00:09:27.209Z,72.6
2018-04-13T00:09:31.460Z,72.6
2018-04-13T00:09:35.668Z,72.98
2018-04-13T00:09:39.872Z,72.69
2018-04-13T00:09:43.973Z,72.79
2018-04-13T00:09:48.189Z,72.69
2018-04-13T00:09:52.515Z,72.69
2018-04-13T00:09:56.732Z,72.79
2018-04-13T00:10:00.832Z,72.79
2018-04-13T00:10:05.049Z,72.69
2018-04-13T00:10:09.256Z,72.79
2018-04-13T00:10:13.623Z,72.79
2018-04-13T00:10:17.836Z,72.69
2018-04-13T00:10:22.160Z,72.88
2018-04-13T00:10:26.306Z,72.88
2018-04-13T00:10:30.514Z,72.88
2018-04-13T00:10:34.733Z,72.69
2018-04-13T00:10:39.054Z,72.79
2018-04-13T00:10:43.264Z,72.79
2018-04-13T00:10:47.576Z,72.88
2018-04-13T00:10:51.684Z,72.79
2018-04-13T00:10:55.795Z,72.88
2018-04-13T00:11:00.125Z,72.6
2018-04-13T00:11:04.337Z,72.6
2018-04-13T00:11:08.555Z,72.69
2018-04-13T00:11:12.762Z,72.6
2018-04-13T00:11:16.869Z,72.6
2018-04-13T00:11:21.189Z,72.69
2018-04-13T00:11:25.568Z,72.79
2018-04-13T00:11:29.561Z,72.79
2018-04-13T00:11:33.663Z,72.79
2018-04-13T00:11:37.987Z,73.27
2018-04-13T00:11:41.980Z,73.17
2018-04-13T00:11:46.188Z,72.79
2018-04-13T00:11:50.398Z,73.17
2018-04-13T00:11:54.715Z,73.17
2018-04-13T00:11:58.819Z,72.98
2018-04-13T00:12:03.028Z,73.08
2018-04-13T00:12:07.243Z,73.08
2018-04-13T00:12:11.457Z,72.98
2018-04-13T00:12:15.674Z,73.08
2018-04-13T00:12:19.999Z,73.08
2018-04-13T00:12:24.319Z,73.08
2018-04-13T00:12:28.443Z,72.88
2018-04-13T00:12:32.653Z,72.88
2018-04-13T00:12:36.974Z,72.88
2018-04-13T00:12:41.070Z,72.69
2018-04-13T00:12:45.069Z,72.79
2018-04-13T00:12:49.396Z,72.69
2018-04-13T00:12:53.709Z,72.69
2018-04-13T00:12:58.022Z,72.79
2018-04-13T00:13:02.236Z,72.79
2018-04-13T00:13:06.464Z,72.79
2018-04-13T00:13:10.671Z,72.79
2018-04-13T00:13:14.992Z,72.79
2018-04-13T00:13:19.197Z,72.88
2018-04-13T00:13:23.293Z,72.79
2018-04-13T00:13:27.509Z,72.88
2018-04-13T00:13:31.717Z,72.98
2018-04-13T00:13:35.708Z,72.69
2018-04-13T00:13:40.020Z,72.75
2018-04-13T00:13:44.230Z,72.75
2018-04-13T00:13:48.439Z,72.79
2018-04-13T00:13:52.541Z,72.75
2018-04-13T00:13:56.743Z,72.88
2018-04-13T00:14:00.952Z,72.88
2018-04-13T00:14:04.945Z,72.98
2018-04-13T00:14:09.150Z,72.85
2018-04-13T00:14:13.034Z,72.66
2018-04-13T00:14:17.355Z,73.04
2018-04-13T00:14:21.664Z,73.04
2018-04-13T00:14:25.670Z,72.88
2018-04-13T00:14:29.705Z,73.04
2018-04-13T00:14:33.807Z,73.14
2018-04-13T00:14:38.032Z,73.14
2018-04-13T00:14:42.246Z,72.85
2018-04-13T00:14:46.556Z,73.14
2018-04-13T00:14:50.784Z,73.46
2018-04-13T00:14:55.146Z,73.43
2018-04-13T00:14:59.470Z,73.52
2018-04-13T00:15:03.680Z,73.71
2018-04-13T00:15:07.892Z,73.52
2018-04-13T00:15:12.107Z,73.33
2018-04-13T00:15:16.207Z,73.52
2018-04-13T00:15:20.525Z,73.43
2018-04-13T00:15:24.627Z,73.23
2018-04-13T00:15:28.837Z,73.23
2018-04-13T00:15:32.833Z,73.43
2018-04-13T00:15:37.040Z,73.43
2018-04-13T00:15:41.137Z,73.61
2018-04-13T00:15:45.342Z,73.43
2018-04-13T00:15:49.658Z,73.23
2018-04-13T00:15:53.869Z,73.65
2018-04-13T00:15:58.183Z,73.61
2018-04-13T00:16:02.388Z,73.9
2018-04-13T00:16:06.278Z,73.71
2018-04-13T00:16:10.602Z,73.8
2018-04-13T00:16:14.601Z,73.61
2018-04-13T00:16:18.914Z,73.52
2018-04-13T00:16:23.227Z,73.52
2018-04-13T00:16:27.446Z,73.61
2018-04-13T00:16:31.762Z,73.71
2018-04-13T00:16:35.865Z,73.75
2018-04-13T00:16:40.191Z,73.61
2018-04-13T00:16:44.510Z,73.61
2018-04-13T00:16:48.826Z,73.61
2018-04-13T00:16:53.039Z,73.52
2018-04-13T00:16:57.350Z,73.61
2018-04-13T00:17:01.453Z,73.52
2018-04-13T00:17:05.813Z,73.61
2018-04-13T00:17:09.911Z,73.61
2018-04-13T00:17:14.012Z,73.43
2018-04-13T00:17:18.324Z,73.8
2018-04-13T00:17:22.529Z,73.8
2018-04-13T00:17:26.849Z,73.43
2018-04-13T00:17:31.202Z,73.8
2018-04-13T00:17:35.415Z,74.19
2018-04-13T00:17:39.518Z,73.99
2018-04-13T00:17:43.772Z,74.09
2018-04-13T00:17:47.981Z,74.09
2018-04-13T00:17:52.295Z,74.19
2018-04-13T00:17:56.508Z,73.99
2018-04-13T00:18:00.827Z,73.99
2018-04-13T00:18:05.039Z,74.09
2018-04-13T00:18:09.258Z,73.71
2018-04-13T00:18:13.578Z,74.09
2018-04-13T00:18:17.891Z,74.09
2018-04-13T00:18:22.096Z,73.61
2018-04-13T00:18:26.300Z,74.09
2018-04-13T00:18:30.405Z,73.99
2018-04-13T00:18:34.615Z,73.99
2018-04-13T00:18:38.941Z,73.71
2018-04-13T00:18:43.146Z,74.19
2018-04-13T00:18:47.359Z,73.71
2018-04-13T00:18:51.671Z,74.28
2018-04-13T00:18:55.988Z,74.09
2018-04-13T00:19:00.192Z,74.19
2018-04-13T00:19:04.295Z,74.09
2018-04-13T00:19:08.401Z,73.9
2018-04-13T00:19:12.715Z,74.09
2018-04-13T00:19:17.027Z,74.19
2018-04-13T00:19:21.226Z,73.99
2018-04-13T00:19:25.585Z,73.9
2018-04-13T00:19:29.576Z,73.99
2018-04-13T00:19:33.677Z,74.19
2018-04-13T00:19:37.994Z,74.28
2018-04-13T00:19:42.204Z,74.28
2018-04-13T00:19:46.408Z,73.9
2018-04-13T00:19:50.719Z,74.19
2018-04-13T00:19:55.036Z,74.19
2018-04-13T00:19:59.351Z,74.09
2018-04-13T00:20:03.670Z,74.48
2018-04-13T00:20:07.983Z,74.28
2018-04-13T00:20:11.979Z,74.28
2018-04-13T00:20:16.077Z,74.19
2018-04-13T00:20:20.288Z,74.38
2018-04-13T00:20:24.607Z,74.19
2018-04-13T00:20:28.927Z,74.19
2018-04-13T00:20:33.029Z,74.28
2018-04-13T00:20:37.144Z,74.38
2018-04-13T00:20:41.465Z,74.28
2018-04-13T00:20:45.775Z,74.28
2018-04-13T00:20:49.991Z,74.28
2018-04-13T00:20:54.204Z,74.28
2018-04-13T00:20:58.519Z,74.38
2018-04-13T00:21:02.833Z,74.38
2018-04-13T00:21:06.937Z,74.48
2018-04-13T00:21:11.146Z,74.57
2018-04-13T00:21:15.461Z,74.57
2018-04-13T00:21:19.554Z,74.57
2018-04-13T00:21:23.655Z,74.48
2018-04-13T00:21:27.973Z,74.48
2018-04-13T00:21:32.289Z,74.95
2018-04-13T00:21:36.495Z,74.57
2018-04-13T00:21:40.702Z,74.76
2018-04-13T00:21:44.914Z,74.76
2018-04-13T00:21:49.127Z,74.76
2018-04-13T00:21:53.225Z,74.76
2018-04-13T00:21:57.223Z,74.85
2018-04-13T00:22:01.433Z,74.48
2018-04-13T00:22:05.541Z,74.57
2018-04-13T00:22:09.751Z,74.48
2018-04-13T00:22:13.634Z,74.57
2018-04-13T00:22:17.846Z,74.28
2018-04-13T00:22:21.948Z,74.66
2018-04-13T00:22:26.268Z,74.38
2018-04-13T00:22:30.372Z,74.66
2018-04-13T00:22:34.472Z,74.66
2018-04-13T00:22:38.690Z,74.76
2018-04-13T00:22:42.795Z,74.66
2018-04-13T00:22:46.901Z,74.66
2018-04-13T00:22:51.106Z,74.66
2018-04-13T00:22:55.205Z,74.95
2018-04-13T00:22:59.525Z,75.05
2018-04-13T00:23:03.622Z,75.24
2018-04-13T00:23:07.827Z,75.05
2018-04-13T00:23:12.034Z,75.05
2018-04-13T00:23:16.249Z,74.85
2018-04-13T00:23:20.558Z,74.85
2018-04-13T00:23:24.547Z,74.85
2018-04-13T00:23:28.648Z,74.76
2018-04-13T00:23:32.964Z,75.24
2018-04-13T00:23:37.282Z,74.95
2018-04-13T00:23:41.596Z,75.24
2018-04-13T00:23:45.909Z,75.24
2018-04-13T00:23:49.901Z,75.14
2018-04-13T00:23:54.007Z,75.24
2018-04-13T00:23:58.219Z,74.95
2018-04-13T00:24:02.587Z,75.24
2018-04-13T00:24:06.693Z,75.05
2018-04-13T00:24:11.008Z,75.05
2018-04-13T00:24:15.343Z,74.95
2018-04-13T00:24:19.602Z,75.14
2018-04-13T00:24:23.913Z,75.14
2018-04-13T00:24:27.914Z,74.95
2018-04-13T00:24:32.115Z,75.14
2018-04-13T00:24:36.219Z,74.95
2018-04-13T00:24:40.428Z,75.14
2018-04-13T00:24:44.425Z,75.14
2018-04-13T00:24:48.749Z,75.05
2018-04-13T00:24:52.959Z,75.14
2018-04-13T00:24:57.170Z,75.24
2018-04-13T00:25:01.486Z,75.52
2018-04-13T00:25:05.528Z,75.52
2018-04-13T00:25:09.846Z,75.52
2018-04-13T00:25:14.166Z,75.62
2018-04-13T00:25:18.487Z,75.14
2018-04-13T00:25:22.692Z,75.43
2018-04-13T00:25:27.011Z,75.24
2018-04-13T00:25:31.334Z,75.14
2018-04-13T00:25:35.581Z,75.34
2018-04-13T00:25:39.892Z,75.52
2018-04-13T00:25:44.114Z,75.43
2018-04-13T00:25:48.449Z,75.52
2018-04-13T00:25:52.771Z,75.52
2018-04-13T00:25:56.870Z,75.62
2018-04-13T00:26:01.099Z,75.62
2018-04-13T00:26:05.090Z,75.43
2018-04-13T00:26:09.191Z,75.34
2018-04-13T00:26:13.506Z,75.62
2018-04-13T00:26:17.819Z,76
2018-04-13T00:26:21.918Z,75.52
2018-04-13T00:26:26.125Z,75.43
2018-04-13T00:26:30.436Z,76.1
2018-04-13T00:26:34.644Z,76.1
2018-04-13T00:26:38.857Z,76.1
2018-04-13T00:26:43.060Z,76
2018-04-13T00:26:47.050Z,75.05
2018-04-13T00:26:51.258Z,75.91
2018-04-13T00:26:55.570Z,75.91
2018-04-13T00:26:59.886Z,75.81
2018-04-13T00:27:03.990Z,75.71
2018-04-13T00:27:08.200Z,75.71
2018-04-13T00:27:12.519Z,75.81
2018-04-13T00:27:16.617Z,75.62
2018-04-13T00:27:20.842Z,75.43
2018-04-13T00:27:25.159Z,75.62
2018-04-13T00:27:29.366Z,75.62
2018-04-13T00:27:33.616Z,75.62
2018-04-13T00:27:37.925Z,75.62
2018-04-13T00:27:42.252Z,75.62
2018-04-13T00:27:46.459Z,75.91
2018-04-13T00:27:50.674Z,75.62
2018-04-13T00:27:54.877Z,75.91
2018-04-13T00:27:59.193Z,76
2018-04-13T00:28:03.345Z,76.29
2018-04-13T00:28:07.454Z,76.2
2018-04-13T00:28:11.674Z,76.1
2018-04-13T00:28:15.887Z,75.81
2018-04-13T00:28:20.194Z,75.81
2018-04-13T00:28:24.402Z,75.62
2018-04-13T00:28:28.717Z,76.1
2018-04-13T00:28:32.930Z,76.48
2018-04-13T00:28:37.139Z,76.29
2018-04-13T00:28:41.355Z,76.29
2018-04-13T00:28:45.665Z,76.2
2018-04-13T00:28:49.767Z,76.77
2018-04-13T00:28:53.978Z,76.77
2018-04-13T00:28:58.293Z,76.39
2018-04-13T00:29:02.626Z,77.06
2018-04-13T00:29:06.725Z,76.86
2018-04-13T00:29:10.938Z,76.86
2018-04-13T00:29:15.042Z,76.96
2018-04-13T00:29:19.042Z,76.86
2018-04-13T00:29:23.249Z,76.86
2018-04-13T00:29:27.347Z,77.06
2018-04-13T00:29:31.663Z,76.67
2018-04-13T00:29:35.759Z,77.34
2018-04-13T00:29:40.069Z,77.44
2018-04-13T00:29:44.384Z,77.44
2018-04-13T00:29:48.483Z,77.15
2018-04-13T00:29:52.704Z,76.96
2018-04-13T00:29:56.912Z,77.06
2018-04-13T00:30:01.135Z,77.06
2018-04-13T00:30:05.523Z,77.15
2018-04-13T00:30:09.732Z,77.15
2018-04-13T00:30:13.828Z,77.25
2018-04-13T00:30:18.047Z,77.34
2018-04-13T00:30:22.358Z,77.34
2018-04-13T00:30:26.563Z,77.15
2018-04-13T00:30:30.875Z,77.34
2018-04-13T00:30:35.081Z,77.15
2018-04-13T00:30:39.400Z,77.25
2018-04-13T00:30:43.717Z,77.25
2018-04-13T00:30:47.921Z,77.44
2018-04-13T00:30:52.015Z,77.92
2018-04-13T00:30:56.223Z,77.44
2018-04-13T00:31:00.548Z,77.72
2018-04-13T00:31:04.754Z,77.25
2018-04-13T00:31:09.082Z,77.63
2018-04-13T00:31:13.296Z,77.82
2018-04-13T00:31:17.394Z,77.25
2018-04-13T00:31:21.606Z,77.72
2018-04-13T00:31:25.822Z,77.72
2018-04-13T00:31:30.026Z,78.3
2018-04-13T00:31:34.522Z,78.11
2018-04-13T00:31:38.621Z,78.01
2018-04-13T00:31:42.725Z,78.2
2018-04-13T00:31:46.931Z,77.82
2018-04-13T00:31:51.035Z,78.01
2018-04-13T00:31:55.355Z,78.01
2018-04-13T00:31:59.678Z,77.72
2018-04-13T00:32:03.785Z,78.01
2018-04-13T00:32:07.892Z,78.39
2018-04-13T00:32:12.000Z,78.58
2018-04-13T00:32:16.207Z,77.92
2018-04-13T00:32:20.527Z,77.82
2018-04-13T00:32:24.729Z,78.49
2018-04-13T00:32:28.933Z,78.39
2018-04-13T00:32:33.029Z,78.39
2018-04-13T00:32:37.233Z,78.49
2018-04-13T00:32:41.331Z,78.2
2018-04-13T00:32:45.533Z,78.2
2018-04-13T00:32:49.851Z,78.01
2018-04-13T00:32:53.955Z,78.49
2018-04-13T00:32:58.075Z,78.39
2018-04-13T00:33:02.176Z,78.3
2018-04-13T00:33:06.281Z,78.39
2018-04-13T00:33:10.494Z,78.11
2018-04-13T00:33:14.811Z,78.11
2018-04-13T00:33:19.019Z,78.3
2018-04-13T00:33:23.227Z,78.2
2018-04-13T00:33:27.461Z,78.2
2018-04-13T00:33:31.669Z,78.3
2018-04-13T00:33:35.878Z,78.3
2018-04-13T00:33:39.985Z,78.01
2018-04-13T00:33:43.977Z,78.11
2018-04-13T00:33:48.188Z,78.2
2018-04-13T00:33:52.390Z,78.11
2018-04-13T00:33:56.598Z,78.2
2018-04-13T00:34:00.803Z,78.2
2018-04-13T00:34:05.015Z,78.2
2018-04-13T00:34:09.120Z,78.01
2018-04-13T00:34:13.217Z,78.3
2018-04-13T00:34:17.317Z,78.11
2018-04-13T00:34:21.630Z,78.2
2018-04-13T00:34:25.729Z,78.78
2018-04-13T00:34:29.731Z,78.49
2018-04-13T00:34:33.828Z,78.49
2018-04-13T00:34:38.040Z,78.58
2018-04-13T00:34:42.246Z,78.39
2018-04-13T00:34:46.464Z,78.39
2018-04-13T00:34:50.672Z,78.3
2018-04-13T00:34:54.884Z,78.3
2018-04-13T00:34:59.091Z,78.39
2018-04-13T00:35:03.192Z,78.3
2018-04-13T00:35:07.398Z,78.68
2018-04-13T00:35:11.398Z,78.78
2018-04-13T00:35:15.610Z,78.78
2018-04-13T00:35:19.820Z,78.87
2018-04-13T00:35:23.926Z,78.97
2018-04-13T00:35:28.141Z,78.78
2018-04-13T00:35:32.464Z,78.78
2018-04-13T00:35:36.774Z,78.68
2018-04-13T00:35:41.111Z,78.58
2018-04-13T00:35:45.426Z,78.78
2018-04-13T00:35:49.746Z,78.39
2018-04-13T00:35:53.950Z,78.49
2018-04-13T00:35:58.046Z,78.68
2018-04-13T00:36:02.404Z,78.49
2018-04-13T00:36:06.402Z,78.58
2018-04-13T00:36:10.497Z,78.58
2018-04-13T00:36:14.595Z,78.68
2018-04-13T00:36:18.912Z,78.68
2018-04-13T00:36:23.118Z,78.87
2018-04-13T00:36:27.433Z,78.87
2018-04-13T00:36:31.756Z,78.87
2018-04-13T00:36:35.855Z,78.97
2018-04-13T00:36:40.176Z,79.16
2018-04-13T00:36:44.392Z,79.16
2018-04-13T00:36:48.599Z,78.78
2018-04-13T00:36:52.693Z,79.25
2018-04-13T00:36:57.010Z,78.97
2018-04-13T00:37:01.342Z,78.97
2018-04-13T00:37:05.722Z,79.16
2018-04-13T00:37:09.822Z,78.87
2018-04-13T00:37:14.029Z,78.87
2018-04-13T00:37:18.350Z,79.35
2018-04-13T00:37:22.671Z,79.25
2018-04-13T00:37:26.884Z,79.35
2018-04-13T00:37:31.197Z,79.44
2018-04-13T00:37:35.404Z,79.16
2018-04-13T00:37:39.612Z,79.16
2018-04-13T00:37:43.815Z,79.06
2018-04-13T00:37:48.020Z,79.25
2018-04-13T00:37:52.115Z,79.16
2018-04-13T00:37:56.427Z,79.16
2018-04-13T00:38:00.640Z,79.16
2018-04-13T00:38:04.954Z,79.41
2018-04-13T00:38:09.069Z,79.16
2018-04-13T00:38:12.950Z,79.16
2018-04-13T00:38:17.274Z,79.16
2018-04-13T00:38:21.608Z,79.02
2018-04-13T00:38:25.601Z,79.12
2018-04-13T00:38:29.803Z,79.06
2018-04-13T00:38:34.009Z,79.06
2018-04-13T00:38:38.220Z,79.44
2018-04-13T00:38:42.444Z,79.35
2018-04-13T00:38:46.758Z,78.97
2018-04-13T00:38:51.078Z,79.25
2018-04-13T00:38:55.292Z,79.22
2018-04-13T00:38:59.396Z,79.12
2018-04-13T00:39:03.497Z,78.87
2018-04-13T00:39:07.609Z,78.68
2018-04-13T00:39:11.706Z,79.41
2018-04-13T00:39:15.921Z,78.55
2018-04-13T00:39:20.239Z,79.12
2018-04-13T00:39:24.341Z,78.93
2018-04-13T00:39:28.227Z,78.93
2018-04-13T00:39:32.327Z,78.97
2018-04-13T00:39:36.534Z,79.12
2018-04-13T00:39:40.743Z,78.68
2018-04-13T00:39:44.633Z,78.68
2018-04-13T00:39:48.958Z,78.78
2018-04-13T00:39:53.269Z,78.64
2018-04-13T00:39:57.479Z,78.87
2018-04-13T00:40:01.687Z,78.83
2018-04-13T00:40:05.688Z,78.78
2018-04-13T00:40:10.001Z,78.64
2018-04-13T00:40:13.995Z,78.49
2018-04-13T00:40:18.206Z,78.45
2018-04-13T00:40:22.514Z,78.78
2018-04-13T00:40:26.728Z,78.49
2018-04-13T00:40:31.039Z,78.87
2018-04-13T00:40:35.398Z,78.64
2018-04-13T00:40:39.716Z,79.16
2018-04-13T00:40:43.815Z,79.25
2018-04-13T00:40:48.022Z,78.49
2018-04-13T00:40:52.118Z,78.83
2018-04-13T00:40:56.327Z,79.02
2018-04-13T00:41:00.535Z,79.16
2018-04-13T00:41:04.536Z,78.93
2018-04-13T00:41:08.657Z,78.83
2018-04-13T00:41:12.976Z,79.35
2018-04-13T00:41:17.192Z,79.35
2018-04-13T00:41:21.509Z,79.25
2018-04-13T00:41:25.710Z,78.97
2018-04-13T00:41:29.705Z,79.31
2018-04-13T00:41:33.809Z,79.02
2018-04-13T00:41:38.019Z,79.02
2018-04-13T00:41:42.226Z,79.06
2018-04-13T00:41:46.428Z,79.25
2018-04-13T00:41:50.700Z,79.22
2018-04-13T00:41:54.798Z,79.06
2018-04-13T00:41:59.007Z,79.16
2018-04-13T00:42:03.109Z,79.02
2018-04-13T00:42:07.325Z,79.25
2018-04-13T00:42:11.648Z,79.22
2018-04-13T00:42:15.963Z,79.22
2018-04-13T00:42:20.176Z,79.06
2018-04-13T00:42:24.385Z,79.22
2018-04-13T00:42:28.595Z,79.02
2018-04-13T00:42:32.904Z,79.12
2018-04-13T00:42:37.129Z,79.22
2018-04-13T00:42:41.336Z,79.02
2018-04-13T00:42:45.547Z,79.16
2018-04-13T00:42:49.869Z,79.22
2018-04-13T00:42:54.156Z,79.16
2018-04-13T00:42:58.471Z,79.06
2018-04-13T00:43:02.460Z,79.02
2018-04-13T00:43:06.671Z,79.16
2018-04-13T00:43:10.821Z,79.35
2018-04-13T00:43:15.151Z,79.22
2018-04-13T00:43:19.362Z,79.22
2018-04-13T00:43:23.676Z,79.16
2018-04-13T00:43:27.993Z,78.74
2018-04-13T00:43:32.200Z,79.12
2018-04-13T00:43:36.410Z,79.12
2018-04-13T00:43:40.619Z,79.16
2018-04-13T00:43:44.831Z,79.16
2018-04-13T00:43:49.147Z,78.97
2018-04-13T00:43:53.458Z,78.97
2018-04-13T00:43:57.611Z,78.78
2018-04-13T00:44:01.824Z,79.12
2018-04-13T00:44:05.711Z,79.12
2018-04-13T00:44:09.925Z,79.12
2018-04-13T00:44:14.302Z,78.93
2018-04-13T00:44:18.408Z,78.87
2018-04-13T00:44:22.619Z,78.93
2018-04-13T00:44:26.997Z,78.97
2018-04-13T00:44:31.309Z,78.83
2018-04-13T00:44:35.412Z,78.97
2018-04-13T00:44:39.724Z,78.93
2018-04-13T00:44:43.827Z,79.16
2018-04-13T00:44:48.145Z,79.16
2018-04-13T00:44:52.356Z,78.83
2018-04-13T00:44:56.566Z,78.74
2018-04-13T00:45:00.766Z,79.12
2018-04-13T00:45:04.871Z,78.97
2018-04-13T00:45:08.977Z,79.22
2018-04-13T00:45:13.076Z,78.97
2018-04-13T00:45:17.400Z,79.22
2018-04-13T00:45:21.720Z,79.02
2018-04-13T00:45:26.034Z,79.02
2018-04-13T00:45:30.354Z,79.06
2018-04-13T00:45:34.562Z,79.31
2018-04-13T00:45:38.774Z,79.06
2018-04-13T00:45:42.888Z,79.12
2018-04-13T00:45:47.210Z,78.93
2018-04-13T00:45:51.308Z,79.41
2018-04-13T00:45:55.521Z,79.41
2018-04-13T00:45:59.838Z,79.44
2018-04-13T00:46:04.084Z,79.25
2018-04-13T00:46:08.194Z,79.12
2018-04-13T00:46:12.404Z,79.31
2018-04-13T00:46:16.725Z,79.35
2018-04-13T00:46:20.717Z,79.5
2018-04-13T00:46:24.818Z,79.54
2018-04-13T00:46:29.030Z,79.64
2018-04-13T00:46:33.247Z,79.64
2018-04-13T00:46:37.360Z,79.41
2018-04-13T00:46:41.674Z,79.41
2018-04-13T00:46:45.876Z,80.07
2018-04-13T00:46:50.083Z,79.88
2018-04-13T00:46:54.400Z,80.11
2018-04-13T00:46:58.503Z,79.93
2018-04-13T00:47:02.603Z,79.73
2018-04-13T00:47:06.701Z,79.73
2018-04-13T00:47:10.916Z,79.79
2018-04-13T00:47:15.128Z,79.83
2018-04-13T00:47:19.455Z,79.79
2018-04-13T00:47:23.552Z,79.79
2018-04-13T00:47:27.654Z,79.83
2018-04-13T00:47:31.792Z,79.79
2018-04-13T00:47:36.118Z,79.73
2018-04-13T00:47:40.327Z,79.69
2018-04-13T00:47:44.648Z,79.69
2018-04-13T00:47:48.852Z,79.98
2018-04-13T00:47:52.954Z,79.79
2018-04-13T00:47:57.271Z,79.79
2018-04-13T00:48:01.472Z,80.07
2018-04-13T00:48:05.789Z,80.07
2018-04-13T00:48:09.899Z,79.79
2018-04-13T00:48:14.107Z,79.98
2018-04-13T00:48:18.323Z,80.02
2018-04-13T00:48:22.532Z,80.11
2018-04-13T00:48:26.866Z,79.69
2018-04-13T00:48:31.086Z,79.69
2018-04-13T00:48:35.412Z,79.79
2018-04-13T00:48:39.724Z,79.93
2018-04-13T00:48:43.936Z,79.83
2018-04-13T00:48:48.248Z,79.6
2018-04-13T00:48:52.568Z,79.79
2018-04-13T00:48:56.671Z,79.69
2018-04-13T00:49:00.885Z,79.73
2018-04-13T00:49:04.987Z,79.79
2018-04-13T00:49:09.204Z,79.73
2018-04-13T00:49:13.414Z,79.69
2018-04-13T00:49:17.403Z,79.79
2018-04-13T00:49:21.720Z,79.69
2018-04-13T00:49:25.610Z,79.83
2018-04-13T00:49:29.604Z,79.6
2018-04-13T00:49:33.602Z,79.6
2018-04-13T00:49:37.916Z,80.02
2018-04-13T00:49:42.127Z,79.88
2018-04-13T00:49:46.336Z,79.93
2018-04-13T00:49:50.654Z,79.83
2018-04-13T00:49:54.969Z,79.69
2018-04-13T00:49:58.961Z,79.73
2018-04-13T00:50:03.176Z,79.69
2018-04-13T00:50:07.285Z,79.83
2018-04-13T00:50:11.494Z,80.11
2018-04-13T00:50:15.591Z,79.41
2018-04-13T00:50:19.911Z,79.44
2018-04-13T00:50:24.269Z,79.41
2018-04-13T00:50:28.589Z,79.5
2018-04-13T00:50:32.689Z,79.25
2018-04-13T00:50:37.010Z,79.31
2018-04-13T00:50:41.321Z,79.35
2018-04-13T00:50:45.417Z,79.25
2018-04-13T00:50:49.737Z,79.54
2018-04-13T00:50:54.054Z,79.25
2018-04-13T00:50:58.278Z,79.64
2018-04-13T00:51:02.383Z,79.31
2018-04-13T00:51:06.599Z,79.54
2018-04-13T00:51:10.700Z,79.35
2018-04-13T00:51:14.920Z,79.6
2018-04-13T00:51:19.132Z,79.54
2018-04-13T00:51:23.346Z,79.69
2018-04-13T00:51:27.658Z,79.64
2018-04-13T00:51:31.895Z,79.73
2018-04-13T00:51:36.226Z,79.64
2018-04-13T00:51:40.437Z,79.35
2018-04-13T00:51:44.760Z,79.73
2018-04-13T00:51:49.083Z,79.54
2018-04-13T00:51:53.186Z,79.41
2018-04-13T00:51:57.290Z,79.35
2018-04-13T00:52:01.495Z,79.54
2018-04-13T00:52:05.634Z,79.44
2018-04-13T00:52:09.626Z,79.64
2018-04-13T00:52:13.617Z,79.35
2018-04-13T00:52:17.933Z,79.35
2018-04-13T00:52:22.133Z,79.41
2018-04-13T00:52:26.461Z,79.31
2018-04-13T00:52:30.671Z,79.12
2018-04-13T00:52:34.983Z,80.07
2018-04-13T00:52:39.190Z,80.21
2018-04-13T00:52:43.393Z,80.11
2018-04-13T00:52:47.599Z,80.11
2018-04-13T00:52:51.818Z,80.02
2018-04-13T00:52:56.127Z,80.17
2018-04-13T00:53:00.341Z,79.83
2018-04-13T00:53:04.332Z,79.79
2018-04-13T00:53:08.649Z,79.88
2018-04-13T00:53:12.864Z,80.07
2018-04-13T00:53:16.967Z,79.6
2018-04-13T00:53:21.287Z,79.6
2018-04-13T00:53:25.382Z,79.79
2018-04-13T00:53:29.700Z,79.69
2018-04-13T00:53:33.912Z,79.79
2018-04-13T00:53:38.120Z,79.79
2018-04-13T00:53:42.439Z,79.88
2018-04-13T00:53:46.547Z,79.5
2018-04-13T00:53:50.650Z,79.69
2018-04-13T00:53:54.971Z,79.79
2018-04-13T00:53:59.083Z,80.07
2018-04-13T00:54:03.352Z,79.79
2018-04-13T00:54:07.456Z,79.69
2018-04-13T00:54:11.780Z,80.07
2018-04-13T00:54:15.775Z,80.17
2018-04-13T00:54:19.887Z,80.46